createdAt,value
2018-10-11T00:00:16.814Z,1.00
2018-10-11T00:02:51.679Z,1.00
2018-10-11T00:05:27.007Z,1.00
2018-10-11T00:08:01.340Z,1.00
2018-10-11T00:10:35.804Z,1.00
2018-10-11T00:13:10.245Z,1.00
2018-10-11T00:15:44.577Z,1.00
2018-10-11T00:18:18.996Z,1.00
2018-10-11T00:20:53.369Z,1.00
2018-10-11T00:23:27.707Z,1.00
2018-10-11T00:26:02.056Z,1.00
2018-10-11T00:28:36.373Z,1.00
2018-10-11T00:31:10.934Z,1.00
2018-10-11T00:33:45.857Z,1.00
2018-10-11T00:36:20.378Z,1.00
2018-10-11T00:38:55.021Z,1.00
2018-10-11T00:41:29.582Z,1.00
2018-10-11T00:44:04.108Z,1.00
2018-10-11T00:46:38.435Z,1.00
2018-10-11T00:49:13.614Z,1.00
2018-10-11T00:51:48.178Z,1.00
2018-10-11T00:54:22.757Z,1.00
2018-10-11T00:56:57.615Z,1.00
2018-10-11T00:59:32.089Z,1.00
2018-10-11T01:02:06.587Z,1.00
2018-10-11T01:04:42.257Z,1.00
2018-10-11T01:07:20.050Z,1.00
2018-10-11T01:09:55.531Z,1.00
2018-10-11T01:12:31.949Z,1.00
2018-10-11T01:15:07.205Z,1.00
2018-10-11T01:17:41.833Z,1.00
2018-10-11T01:20:16.356Z,1.50
2018-10-11T01:22:51.626Z,1.50
2018-10-11T01:25:27.541Z,1.20
2018-10-11T01:28:02.558Z,1.50
2018-10-11T01:30:37.164Z,1.90
2018-10-11T01:33:13.865Z,2.00
2018-10-11T01:35:51.280Z,2.70
2018-10-11T01:38:27.733Z,2.40
2018-10-11T01:41:03.305Z,2.10
2018-10-11T01:43:37.468Z,1.50
2018-10-11T01:46:13.663Z,1.80
2018-10-11T01:48:47.988Z,1.60
2018-10-11T01:51:23.637Z,1.50
2018-10-11T01:53:59.962Z,1.50
2018-10-11T01:56:34.944Z,2.80
2018-10-11T01:59:10.701Z,1.90
2018-10-11T02:01:45.723Z,3.00
2018-10-11T02:04:20.785Z,2.60
2018-10-11T02:06:55.752Z,2.70
2018-10-11T02:09:33.039Z,2.70
2018-10-11T02:12:08.950Z,3.00
2018-10-11T02:14:43.537Z,3.80
2018-10-11T02:17:18.009Z,3.40
2018-10-11T02:19:53.825Z,3.80
2018-10-11T02:22:28.904Z,4.40
2018-10-11T02:25:04.964Z,3.80
2018-10-11T02:27:39.834Z,3.80
2018-10-11T02:30:14.798Z,4.70
2018-10-11T02:32:49.693Z,4.80
2018-10-11T02:35:25.680Z,4.50
2018-10-11T02:38:01.375Z,4.60
2018-10-11T02:40:36.769Z,4.50
2018-10-11T02:43:14.156Z,4.40
2018-10-11T02:45:50.873Z,4.90
2018-10-11T02:48:27.692Z,4.90
2018-10-11T02:51:04.001Z,5.10
2018-10-11T02:53:41.220Z,4.60
2018-10-11T02:56:18.345Z,5.30
2018-10-11T02:59:33.470Z,4.90
2018-10-11T03:02:12.000Z,4.90
2018-10-11T03:04:51.622Z,4.70
2018-10-11T03:07:29.338Z,4.70
2018-10-11T03:10:04.369Z,6.70
2018-10-11T03:12:41.197Z,6.10
2018-10-11T03:15:23.868Z,6.50
2018-10-11T03:18:10.483Z,6.40
2018-10-11T03:20:46.343Z,7.30
2018-10-11T03:23:21.269Z,7.50
2018-10-11T03:25:58.980Z,8.10
2018-10-11T03:28:34.756Z,7.80
2018-10-11T03:31:11.317Z,7.80
2018-10-11T03:33:47.857Z,7.60
2018-10-11T03:36:24.445Z,7.40
2018-10-11T03:39:01.444Z,7.80
2018-10-11T03:41:38.061Z,7.80
2018-10-11T03:44:13.193Z,8.10
2018-10-11T03:46:47.941Z,9.60
2018-10-11T03:49:23.806Z,10.10
2018-10-11T03:51:59.521Z,10.50
2018-10-11T03:54:34.926Z,10.50
2018-10-11T03:57:09.659Z,10.50
2018-10-11T03:59:45.750Z,10.30
2018-10-11T04:02:21.701Z,10.40
2018-10-11T04:04:58.266Z,10.80
2018-10-11T04:07:34.715Z,10.90
2018-10-11T04:10:11.954Z,10.60
2018-10-11T04:12:46.982Z,10.90
2018-10-11T04:15:23.353Z,10.90
2018-10-11T04:17:59.783Z,11.60
2018-10-11T04:20:37.997Z,12.10
2018-10-11T04:23:17.413Z,12.60
2018-10-11T04:25:52.696Z,12.50
2018-10-11T04:28:30.011Z,13.50
2018-10-11T04:31:06.854Z,13.60
2018-10-11T04:33:42.764Z,14.10
2018-10-11T04:39:10.101Z,14.40
2018-10-11T04:41:45.784Z,14.00
2018-10-11T04:44:21.263Z,14.50
2018-10-11T04:46:56.793Z,14.80
2018-10-11T04:49:33.787Z,15.00
2018-10-11T04:52:09.069Z,15.20
2018-10-11T04:54:45.689Z,15.00
2018-10-11T04:57:22.005Z,15.60
2018-10-11T04:59:57.382Z,15.60
2018-10-11T05:02:34.373Z,16.10
2018-10-11T05:05:11.966Z,15.90
2018-10-11T05:07:48.807Z,15.70
2018-10-11T05:10:25.478Z,15.60
2018-10-11T05:13:01.339Z,15.80
2018-10-11T05:15:40.959Z,15.60
2018-10-11T05:18:22.974Z,15.00
2018-10-11T05:21:07.876Z,14.60
2018-10-11T05:24:00.230Z,14.80
2018-10-11T05:26:38.597Z,14.40
2018-10-11T05:29:24.313Z,12.90
2018-10-11T05:37:52.296Z,12.70
2018-10-11T05:40:41.236Z,12.40
2018-10-11T05:43:20.059Z,12.30
2018-10-11T05:46:00.959Z,12.30
2018-10-11T05:48:44.746Z,12.20
2018-10-11T05:51:27.824Z,12.90
2018-10-11T05:54:12.301Z,13.00
2018-10-11T05:56:52.525Z,12.30
2018-10-11T05:59:30.527Z,12.50
2018-10-11T06:02:14.711Z,12.30
2018-10-11T06:04:59.586Z,11.80
2018-10-11T06:07:54.449Z,10.90
2018-10-11T06:13:25.009Z,10.00
2018-10-11T06:16:03.338Z,9.20
2018-10-11T06:18:38.436Z,8.30
2018-10-11T06:24:09.246Z,6.60
2018-10-11T06:26:53.921Z,6.10
2018-10-11T06:29:36.076Z,5.80
2018-10-11T06:32:21.521Z,5.10
2018-10-11T06:35:03.784Z,4.30
2018-10-11T06:37:54.610Z,3.60
2018-10-11T06:46:24.823Z,1.60
2018-10-11T06:49:10.412Z,1.00
2018-10-11T06:51:52.521Z,1.00
2018-10-11T06:54:30.035Z,1.00
2018-10-11T06:57:18.729Z,1.00
2018-10-11T07:00:03.455Z,1.00
2018-10-11T07:02:47.538Z,1.00
2018-10-11T07:05:30.599Z,1.00
2018-10-11T07:08:08.813Z,1.00
2018-10-11T07:10:46.099Z,1.00
2018-10-11T07:13:31.957Z,1.00
2018-10-11T07:16:07.760Z,1.00
2018-10-11T07:18:44.101Z,1.00
2018-10-11T07:21:19.124Z,1.00
2018-10-11T07:23:58.260Z,1.00
2018-10-11T07:26:38.906Z,1.00
2018-10-11T07:29:15.816Z,1.00
2018-10-11T07:31:52.470Z,1.00
2018-10-11T07:34:29.148Z,1.00
2018-10-11T07:37:08.455Z,1.00
2018-10-11T07:39:43.736Z,1.00
2018-10-11T07:42:18.129Z,1.00
2018-10-11T07:44:52.922Z,1.00
2018-10-11T07:47:28.020Z,1.00
2018-10-11T07:50:02.654Z,1.00
2018-10-11T07:52:37.281Z,1.00
2018-10-11T07:55:11.945Z,1.00
2018-10-11T07:57:47.789Z,1.00
2018-10-11T08:00:22.331Z,1.00
2018-10-11T08:02:58.228Z,1.00
2018-10-11T08:05:39.360Z,1.00
2018-10-11T08:08:13.850Z,1.00
2018-10-11T08:10:48.601Z,1.00
2018-10-11T08:13:23.173Z,1.00
2018-10-11T08:15:57.697Z,1.00
2018-10-11T08:18:32.313Z,1.00
2018-10-11T08:21:15.988Z,1.00
2018-10-11T08:23:57.914Z,1.00
2018-10-11T08:32:14.623Z,1.00
2018-10-11T08:34:51.225Z,1.00
2018-10-11T08:37:34.206Z,1.00
2018-10-11T08:40:13.708Z,1.00
2018-10-11T08:42:49.105Z,1.00
2018-10-11T09:09:05.373Z,1.00
2018-10-11T09:53:03.489Z,1.00
2018-10-11T10:07:18.224Z,1.00
2018-10-11T10:18:55.588Z,1.00
2018-10-11T10:27:46.824Z,1.00
2018-10-11T10:30:34.088Z,1.00
2018-10-11T10:33:25.101Z,1.00
2018-10-11T10:38:58.542Z,1.00
2018-10-11T11:08:53.289Z,1.00
2018-10-11T11:17:21.500Z,1.00
2018-10-11T11:20:00.126Z,1.00
2018-10-11T11:22:36.574Z,1.00
2018-10-11T11:25:18.754Z,1.00
2018-10-11T11:28:02.207Z,1.00
2018-10-11T11:30:43.906Z,1.00
2018-10-11T11:33:25.620Z,1.00
2018-10-11T11:36:06.151Z,1.00
2018-10-11T11:38:45.180Z,1.00
2018-10-11T11:41:28.027Z,1.00
2018-10-11T11:44:07.344Z,1.00
2018-10-11T11:46:53.592Z,1.00
2018-10-11T11:52:18.173Z,1.00
2018-10-11T11:55:21.103Z,1.00
2018-10-11T12:11:29.223Z,1.00
2018-10-11T12:14:17.285Z,1.00
2018-10-11T12:17:00.267Z,1.00
2018-10-11T12:19:53.125Z,1.00
2018-10-11T12:22:38.187Z,1.00
2018-10-11T12:25:20.184Z,1.00
2018-10-11T12:28:06.982Z,1.00
2018-10-11T12:30:55.901Z,1.00
2018-10-11T12:33:40.814Z,1.00
2018-10-11T12:42:13.134Z,1.00
2018-10-11T12:59:56.860Z,1.00
2018-10-11T13:02:44.930Z,1.00
2018-10-11T13:05:27.517Z,1.00
2018-10-11T13:08:12.179Z,1.00
2018-10-11T14:04:01.418Z,1.00
2018-10-11T14:06:48.206Z,1.00
2018-10-11T14:09:36.637Z,1.00
2018-10-11T14:12:16.129Z,1.00
2018-10-11T14:14:56.478Z,1.00
2018-10-11T14:17:37.869Z,1.00
2018-10-11T14:20:25.165Z,1.00
2018-10-11T14:23:05.381Z,1.00
2018-10-11T14:25:48.787Z,1.00
2018-10-11T14:28:35.990Z,1.00
2018-10-11T14:31:16.795Z,1.00
2018-10-11T14:34:01.125Z,1.00
2018-10-11T14:36:47.383Z,1.00
2018-10-11T14:42:30.485Z,1.00
2018-10-11T14:45:20.800Z,1.00
2018-10-11T14:48:03.857Z,1.00
2018-10-11T14:50:47.467Z,1.00
2018-10-11T14:53:29.745Z,1.00
2018-10-11T14:59:00.050Z,1.00
2018-10-11T15:04:35.467Z,1.00
2018-10-11T15:07:13.073Z,1.00
2018-10-11T15:12:48.432Z,1.00
2018-10-11T15:18:36.618Z,1.00
2018-10-11T15:21:18.503Z,1.00
2018-10-11T15:35:50.101Z,1.00
2018-10-11T15:50:26.103Z,1.00
2018-10-11T15:53:16.202Z,1.00
2018-10-11T17:02:45.328Z,1.00
2018-10-11T17:05:20.066Z,1.00
2018-10-11T17:07:55.077Z,1.00
2018-10-11T17:10:29.694Z,1.00
2018-10-11T17:13:04.177Z,1.00
2018-10-11T17:15:39.210Z,1.00
2018-10-11T17:18:15.311Z,1.00
2018-10-11T17:23:56.108Z,1.00
2018-10-11T17:26:38.165Z,1.00
2018-10-11T17:29:14.714Z,1.00
2018-10-11T17:34:39.337Z,1.00
2018-10-11T17:37:24.697Z,1.00
2018-10-11T17:40:06.157Z,1.00
2018-10-11T17:42:48.395Z,1.00
2018-10-11T17:45:33.125Z,1.00
2018-10-11T17:48:11.138Z,1.00
2018-10-11T17:50:51.823Z,1.00
2018-10-11T17:53:34.454Z,1.00
2018-10-11T17:56:10.915Z,1.00
2018-10-11T17:58:51.811Z,1.00
2018-10-11T18:01:27.688Z,1.00
2018-10-11T18:04:06.118Z,1.00
2018-10-11T18:06:49.289Z,1.00
2018-10-11T18:09:34.949Z,1.00
2018-10-11T18:12:10.213Z,1.00
2018-10-11T18:14:46.281Z,1.00
2018-10-11T18:17:22.027Z,1.00
2018-10-11T18:19:57.249Z,1.00
2018-10-11T18:22:33.862Z,1.00
2018-10-11T18:25:09.749Z,1.00
2018-10-11T18:27:44.421Z,1.00
2018-10-11T18:30:23.033Z,1.00
2018-10-11T18:33:00.206Z,1.00
2018-10-11T18:35:42.863Z,1.00
2018-10-11T18:38:20.781Z,1.00
2018-10-11T18:41:00.305Z,1.00
2018-10-11T18:43:39.540Z,1.00
2018-10-11T18:46:18.353Z,1.00
2018-10-11T18:48:59.313Z,1.00
2018-10-11T18:51:39.645Z,1.00
2018-10-11T19:00:02.279Z,1.00
2018-10-11T19:02:42.171Z,1.00
2018-10-11T19:05:19.173Z,1.00
2018-10-11T19:08:00.319Z,1.00
2018-10-11T19:10:40.068Z,1.00
2018-10-11T19:13:15.439Z,1.00
2018-10-11T19:15:50.799Z,1.00
2018-10-11T19:18:30.390Z,1.00
2018-10-11T19:21:05.702Z,1.00
2018-10-11T19:23:41.494Z,1.00
2018-10-11T19:26:17.521Z,1.00
2018-10-11T19:28:53.007Z,1.00
2018-10-11T19:34:10.160Z,1.00
2018-10-11T19:36:45.193Z,1.00
2018-10-11T19:39:20.508Z,1.00
2018-10-11T19:41:55.330Z,1.00
2018-10-11T19:44:36.689Z,1.00
2018-10-11T19:47:18.454Z,1.00
2018-10-11T19:49:54.413Z,1.00
2018-10-11T19:52:34.189Z,1.00
2018-10-11T19:55:11.441Z,1.00
2018-10-11T19:57:49.818Z,1.00
2018-10-11T20:00:27.691Z,1.00
2018-10-11T20:03:03.129Z,1.00
2018-10-11T20:05:42.933Z,1.00
2018-10-11T20:08:18.949Z,1.00
2018-10-11T20:10:53.858Z,1.00
2018-10-11T20:13:28.895Z,1.00
2018-10-11T20:16:04.840Z,1.00
2018-10-11T20:18:40.003Z,1.00
2018-10-11T20:21:19.748Z,1.00
2018-10-11T20:23:55.057Z,1.00
2018-10-11T20:26:30.076Z,1.00
2018-10-11T20:29:06.010Z,1.00
2018-10-11T20:31:40.879Z,1.00
2018-10-11T20:34:16.824Z,1.00
2018-10-11T20:36:54.106Z,1.00
2018-10-11T20:39:29.030Z,1.00
2018-10-11T20:42:04.490Z,1.00
2018-10-11T20:44:42.073Z,1.00
2018-10-11T20:47:23.517Z,1.00
2018-10-11T20:50:01.316Z,1.00
2018-10-11T20:52:36.448Z,1.00
2018-10-11T20:55:10.960Z,1.00
2018-10-11T20:57:46.433Z,1.00
2018-10-11T21:00:23.764Z,1.00
2018-10-11T21:02:58.482Z,1.00
2018-10-11T21:05:33.729Z,1.00
2018-10-11T21:08:08.051Z,1.00
2018-10-11T21:10:42.980Z,1.00
2018-10-11T21:13:17.747Z,1.00
2018-10-11T21:15:52.627Z,1.00
2018-10-11T21:18:27.099Z,1.00
2018-10-11T21:21:02.196Z,1.00
2018-10-11T21:23:36.637Z,1.00
2018-10-11T21:26:11.644Z,1.00
2018-10-11T21:28:47.517Z,1.00
2018-10-11T21:31:23.859Z,1.00
2018-10-11T21:33:59.881Z,1.00
2018-10-11T21:36:48.170Z,1.00
2018-10-11T21:48:02.541Z,1.00
2018-10-11T21:50:38.750Z,1.00
2018-10-11T21:53:13.215Z,1.00
2018-10-11T21:55:49.962Z,1.00
2018-10-11T21:58:25.249Z,1.00
2018-10-11T22:01:07.114Z,1.00
2018-10-11T22:03:42.948Z,1.00
2018-10-11T22:06:21.180Z,1.00
2018-10-11T22:08:56.249Z,1.00
2018-10-11T22:11:30.953Z,1.00
2018-10-11T22:14:05.382Z,1.00
2018-10-11T22:16:40.202Z,1.00
2018-10-11T22:19:14.712Z,1.00
2018-10-11T22:21:49.483Z,1.00
2018-10-11T22:24:24.293Z,1.00
2018-10-11T22:26:59.384Z,1.00
2018-10-11T22:29:33.833Z,1.00
2018-10-11T22:32:08.303Z,1.00
2018-10-11T22:34:42.866Z,1.00
2018-10-11T22:37:19.530Z,1.00
2018-10-11T22:39:53.894Z,1.00
2018-10-11T22:42:29.104Z,1.00
2018-10-11T22:45:03.442Z,1.00
2018-10-11T22:47:39.957Z,1.00
2018-10-11T22:50:14.852Z,1.00
2018-10-11T22:52:49.217Z,1.00
2018-10-11T22:55:24.086Z,1.00
2018-10-11T22:57:58.772Z,1.00
2018-10-11T23:00:33.330Z,1.00
2018-10-11T23:03:07.679Z,1.00
2018-10-11T23:05:42.366Z,1.00
2018-10-11T23:08:17.298Z,1.00
2018-10-11T23:10:51.765Z,1.00
2018-10-11T23:13:26.265Z,1.00
2018-10-11T23:16:00.604Z,1.00
2018-10-11T23:18:35.997Z,1.00
2018-10-11T23:21:11.163Z,1.00
2018-10-11T23:23:45.454Z,1.00
2018-10-11T23:26:20.925Z,1.00
2018-10-11T23:28:55.268Z,1.00
2018-10-11T23:31:29.993Z,1.00
2018-10-11T23:34:04.535Z,1.00
2018-10-11T23:36:38.898Z,1.00
2018-10-11T23:39:13.267Z,1.00
2018-10-11T23:41:47.867Z,1.00
2018-10-11T23:44:22.353Z,1.00
2018-10-11T23:46:56.677Z,1.00
2018-10-11T23:49:31.228Z,1.00
2018-10-11T23:52:05.913Z,1.00
2018-10-11T23:54:41.308Z,1.00
2018-10-11T23:57:16.273Z,1.00
2018-10-11T23:59:50.626Z,1.00
